createdAt,value
2019-04-11T00:00:41.753Z,58.41
2019-04-11T00:01:46.320Z,58.51
2019-04-11T00:02:41.772Z,58.62
2019-04-11T00:03:41.766Z,58.51
2019-04-11T00:04:41.980Z,58.23
2019-04-11T00:05:41.266Z,58.20
2019-04-11T00:06:41.432Z,59.27
2019-04-11T00:07:40.738Z,58.85
2019-04-11T00:08:41.701Z,58.64
2019-04-11T00:09:40.889Z,59.37
2019-04-11T00:10:41.642Z,59.37
2019-04-11T00:11:40.676Z,58.23
2019-04-11T00:12:40.966Z,59.27
2019-04-11T00:13:41.139Z,59.27
2019-04-11T00:14:40.662Z,59.89
2019-04-11T00:15:40.625Z,59.58
2019-04-11T00:16:41.540Z,59.50
2019-04-11T00:17:41.745Z,59.71
2019-04-11T00:18:41.026Z,59.91
2019-04-11T00:19:40.585Z,60.22
2019-04-11T00:20:40.602Z,60.12
2019-04-11T00:21:41.296Z,61.05
2019-04-11T00:22:41.519Z,61.26
2019-04-11T00:23:40.610Z,60.98
2019-04-11T00:24:40.527Z,61.91
2019-04-11T00:25:40.542Z,61.29
2019-04-11T00:26:40.540Z,61.71
2019-04-11T00:27:41.333Z,61.40
2019-04-11T00:28:41.588Z,62.02
2019-04-11T00:29:40.757Z,62.12
2019-04-11T00:30:40.464Z,62.23
2019-04-11T00:31:41.114Z,61.50
2019-04-11T00:32:41.412Z,61.71
2019-04-11T00:33:40.479Z,62.02
2019-04-11T00:34:40.414Z,62.12
2019-04-11T00:35:40.408Z,61.91
2019-04-11T00:36:40.816Z,62.36
2019-04-11T00:37:41.235Z,62.77
2019-04-11T00:38:40.388Z,62.23
2019-04-11T00:39:40.650Z,62.05
2019-04-11T00:40:41.518Z,62.64
2019-04-11T00:41:40.364Z,63.40
2019-04-11T00:42:40.927Z,62.57
2019-04-11T00:43:42.121Z,62.88
2019-04-11T00:44:41.153Z,62.67
2019-04-11T00:45:40.308Z,62.88
2019-04-11T00:46:40.512Z,63.60
2019-04-11T00:47:41.478Z,63.29
2019-04-11T00:48:40.264Z,63.60
2019-04-11T00:49:40.820Z,63.32
2019-04-11T00:50:40.272Z,63.84
2019-04-11T00:51:40.261Z,63.73
2019-04-11T00:52:41.231Z,63.53
2019-04-11T00:53:40.388Z,63.63
2019-04-11T00:54:40.711Z,63.92
2019-04-11T00:55:40.187Z,63.53
2019-04-11T00:56:40.198Z,63.53
2019-04-11T00:57:41.139Z,63.94
2019-04-11T00:58:40.169Z,63.32
2019-04-11T00:59:40.601Z,63.63
2019-04-11T01:00:40.161Z,63.84
2019-04-11T01:01:40.897Z,63.73
2019-04-11T01:02:41.723Z,64.67
2019-04-11T01:03:40.111Z,65.29
2019-04-11T01:04:41.145Z,64.07
2019-04-11T01:05:40.088Z,64.77
2019-04-11T01:06:40.566Z,64.56
2019-04-11T01:07:40.909Z,64.56
2019-04-11T01:08:40.045Z,65.08
2019-04-11T01:09:40.266Z,65.08
2019-04-11T01:10:40.032Z,65.01
2019-04-11T01:11:40.366Z,64.77
2019-04-11T01:12:40.773Z,65.22
2019-04-11T01:13:47.712Z,64.90
2019-04-11T01:14:41.039Z,65.22
2019-04-11T01:15:40.811Z,64.87
2019-04-11T01:16:40.968Z,64.90
2019-04-11T01:17:39.962Z,64.59
2019-04-11T01:18:40.349Z,65.22
2019-04-11T01:19:40.716Z,65.19
2019-04-11T01:20:39.911Z,64.90
2019-04-11T01:21:40.386Z,65.84
2019-04-11T01:22:40.517Z,66.15
2019-04-11T01:23:39.913Z,65.84
2019-04-11T01:24:39.970Z,65.94
2019-04-11T01:25:40.937Z,65.63
2019-04-11T01:26:39.851Z,65.42
2019-04-11T01:27:41.093Z,65.32
2019-04-11T01:28:39.867Z,65.22
2019-04-11T01:29:39.874Z,65.73
2019-04-11T01:30:40.825Z,65.94
2019-04-11T01:31:39.968Z,66.99
2019-04-11T01:32:40.268Z,65.84
2019-04-11T01:33:40.154Z,66.88
2019-04-11T01:34:40.427Z,65.84
2019-04-11T01:35:39.781Z,66.57
2019-04-11T01:36:39.745Z,66.39
2019-04-11T01:37:39.865Z,66.08
2019-04-11T01:38:40.786Z,65.84
2019-04-11T01:39:39.751Z,66.91
2019-04-11T01:40:40.126Z,66.81
2019-04-11T01:41:39.692Z,67.02
2019-04-11T01:42:39.752Z,66.91
2019-04-11T01:43:41.041Z,67.22
2019-04-11T01:44:40.990Z,67.43
2019-04-11T01:45:39.650Z,67.12
2019-04-11T01:46:40.293Z,67.74
2019-04-11T01:47:39.630Z,67.12
2019-04-11T01:48:39.685Z,67.02
2019-04-11T01:49:40.610Z,67.74
2019-04-11T01:50:39.617Z,67.64
2019-04-11T01:51:40.104Z,67.54
2019-04-11T01:52:39.575Z,67.02
2019-04-11T01:53:40.983Z,67.43
2019-04-11T01:54:39.624Z,67.43
2019-04-11T01:55:40.624Z,68.05
2019-04-11T01:56:39.559Z,68.26
2019-04-11T01:57:40.266Z,68.05
2019-04-11T01:58:40.547Z,67.74
2019-04-11T01:59:39.652Z,67.95
2019-04-11T02:00:39.906Z,68.57
2019-04-11T02:01:39.474Z,68.68
2019-04-11T02:02:39.474Z,68.68
2019-04-11T02:03:39.469Z,68.68
2019-04-11T02:04:40.373Z,68.37
2019-04-11T02:05:39.436Z,68.78
2019-04-11T02:06:40.323Z,68.16
2019-04-11T02:07:39.637Z,68.68
2019-04-11T02:08:39.682Z,68.16
2019-04-11T02:09:40.077Z,68.88
2019-04-11T02:10:39.381Z,68.19
2019-04-11T02:11:39.499Z,68.16
2019-04-11T02:12:39.432Z,68.19
2019-04-11T02:13:39.685Z,68.37
2019-04-11T02:14:39.663Z,68.60
2019-04-11T02:15:39.328Z,69.02
2019-04-11T02:16:39.310Z,68.47
2019-04-11T02:17:39.311Z,68.88
2019-04-11T02:18:39.425Z,69.43
2019-04-11T02:19:40.476Z,69.61
2019-04-11T02:20:39.282Z,68.57
2019-04-11T02:21:40.056Z,68.88
2019-04-11T02:22:40.340Z,68.37
2019-04-11T02:23:39.433Z,68.16
2019-04-11T02:24:39.685Z,68.16
2019-04-11T02:25:39.209Z,68.81
2019-04-11T02:26:39.205Z,68.16
2019-04-11T02:27:40.177Z,68.26
2019-04-11T02:28:39.183Z,68.91
2019-04-11T02:29:39.209Z,68.91
2019-04-11T02:30:41.055Z,69.12
2019-04-11T02:31:39.162Z,69.23
2019-04-11T02:32:40.406Z,69.85
2019-04-11T02:33:39.118Z,69.23
2019-04-11T02:34:39.727Z,69.54
2019-04-11T02:35:40.008Z,69.54
2019-04-11T02:36:40.493Z,69.64
2019-04-11T02:37:39.920Z,69.85
2019-04-11T02:38:41.043Z,69.54
2019-04-11T02:39:40.805Z,69.74
2019-04-11T02:40:40.900Z,69.96
2019-04-11T02:41:39.838Z,69.85
2019-04-11T02:42:39.044Z,69.12
2019-04-11T02:43:42.131Z,69.43
2019-04-11T02:44:55.988Z,69.12
2019-04-11T02:45:54.481Z,69.23
2019-04-11T02:46:44.872Z,69.23
2019-04-11T02:47:43.604Z,69.12
2019-04-11T02:48:40.669Z,68.60
2019-04-11T02:49:39.337Z,68.71
2019-04-11T02:50:40.999Z,68.95
2019-04-11T02:51:39.238Z,68.50
2019-04-11T02:52:40.139Z,67.98
2019-04-11T02:53:39.035Z,67.88
2019-04-11T02:54:38.969Z,68.63
2019-04-11T02:55:38.907Z,68.63
2019-04-11T02:56:40.473Z,68.43
2019-04-11T02:57:40.637Z,68.95
2019-04-11T02:58:39.715Z,68.43
2019-04-11T02:59:39.112Z,67.91
2019-04-11T03:00:40.184Z,68.32
2019-04-11T03:01:39.907Z,68.19
2019-04-11T03:02:39.515Z,68.08
2019-04-11T03:03:39.496Z,67.91
2019-04-11T03:04:39.331Z,68.63
2019-04-11T03:05:39.438Z,68.43
2019-04-11T03:06:39.665Z,68.01
2019-04-11T03:07:40.112Z,68.12
2019-04-11T03:08:40.390Z,67.91
2019-04-11T03:09:39.311Z,68.01
2019-04-11T03:10:38.769Z,68.01
2019-04-11T03:11:38.808Z,68.01
2019-04-11T03:12:40.363Z,68.01
2019-04-11T03:13:38.721Z,68.43
2019-04-11T03:15:02.280Z,68.22
2019-04-11T03:15:54.411Z,68.43
2019-04-11T03:16:53.384Z,68.22
2019-04-11T03:17:43.248Z,68.22
2019-04-11T03:18:54.699Z,68.12
2019-04-11T03:19:53.618Z,68.32
2019-04-11T03:20:45.663Z,67.70
2019-04-11T03:21:43.637Z,68.22
2019-04-11T03:22:40.627Z,67.91
2019-04-11T03:23:39.768Z,68.12
2019-04-11T03:24:39.272Z,68.12
2019-04-11T03:25:38.720Z,68.46
2019-04-11T03:26:38.544Z,68.63
2019-04-11T03:27:38.584Z,68.88
2019-04-11T03:28:40.739Z,69.05
2019-04-11T03:29:38.527Z,68.32
2019-04-11T03:30:59.142Z,68.43
2019-04-11T03:32:18.054Z,69.09
2019-04-11T03:34:40.192Z,68.35
2019-04-11T03:38:00.047Z,68.98
2019-04-11T03:39:00.267Z,69.09
2019-04-11T03:40:02.415Z,69.60
2019-04-11T03:40:57.901Z,69.09
2019-04-11T03:41:56.601Z,69.60
2019-04-11T03:42:57.034Z,69.60
2019-04-11T03:43:53.040Z,69.81
2019-04-11T03:44:44.978Z,69.92
2019-04-11T03:46:01.320Z,69.60
2019-04-11T03:46:55.741Z,69.92
2019-04-11T03:47:54.737Z,70.05
2019-04-11T03:48:51.165Z,70.33
2019-04-11T03:49:46.698Z,70.57
2019-04-11T03:50:39.969Z,70.99
2019-04-11T03:51:40.435Z,70.78
2019-04-11T03:52:38.269Z,71.20
2019-04-11T03:53:38.298Z,71.51
2019-04-11T03:54:38.909Z,71.82
2019-04-11T03:55:39.063Z,71.51
2019-04-11T03:56:38.972Z,71.54
2019-04-11T03:57:39.377Z,71.86
2019-04-11T03:58:39.708Z,72.69
2019-04-11T03:59:39.099Z,71.96
2019-04-11T04:00:42.515Z,72.58
2019-04-11T04:01:39.903Z,71.96
2019-04-11T04:02:39.123Z,72.38
2019-04-11T04:03:39.251Z,72.27
2019-04-11T04:04:39.264Z,73.10
2019-04-11T04:05:39.080Z,73.00
2019-04-11T04:06:39.389Z,72.06
2019-04-11T04:07:38.323Z,73.00
2019-04-11T04:08:38.730Z,73.00
2019-04-11T04:09:39.626Z,72.51
2019-04-11T04:10:39.372Z,72.41
2019-04-11T04:11:38.412Z,72.62
2019-04-11T04:12:40.077Z,72.93
2019-04-11T04:13:38.942Z,73.14
2019-04-11T04:14:39.150Z,73.03
2019-04-11T04:15:51.552Z,73.35
2019-04-11T04:16:45.698Z,73.35
2019-04-11T04:17:39.338Z,73.24
2019-04-11T04:18:38.209Z,73.66
2019-04-11T04:19:39.636Z,73.35
2019-04-11T04:20:39.464Z,73.03
2019-04-11T04:21:38.795Z,73.55
2019-04-11T04:22:39.645Z,73.66
2019-04-11T04:23:38.137Z,73.76
2019-04-11T04:24:40.442Z,73.76
2019-04-11T04:25:39.188Z,73.45
2019-04-11T04:26:39.115Z,73.66
2019-04-11T04:27:38.782Z,73.45
2019-04-11T04:28:38.697Z,73.35
2019-04-11T04:29:38.180Z,74.18
2019-04-11T04:30:38.910Z,74.07
2019-04-11T04:31:38.529Z,74.07
2019-04-11T04:32:38.655Z,73.97
2019-04-11T04:33:39.925Z,73.86
2019-04-11T04:34:37.822Z,73.97
2019-04-11T04:35:38.605Z,74.29
2019-04-11T04:36:37.926Z,74.29
2019-04-11T04:37:38.803Z,73.86
2019-04-11T04:38:39.588Z,74.39
2019-04-11T04:39:39.765Z,73.66
2019-04-11T04:40:50.921Z,73.66
2019-04-11T04:41:47.062Z,73.66
2019-04-11T04:42:44.449Z,73.63
2019-04-11T04:43:38.862Z,74.04
2019-04-11T04:44:38.051Z,74.46
2019-04-11T04:45:58.138Z,73.86
2019-04-11T04:46:52.628Z,74.39
2019-04-11T04:47:46.626Z,73.83
2019-04-11T04:48:40.989Z,74.21
2019-04-11T04:49:38.847Z,73.83
2019-04-11T04:50:39.209Z,73.14
2019-04-11T04:51:39.030Z,72.59
2019-04-11T04:52:38.184Z,72.07
2019-04-11T04:53:39.046Z,70.48
2019-04-11T04:54:38.601Z,70.23
2019-04-11T04:55:37.677Z,69.71
2019-04-11T04:56:39.781Z,69.82
2019-04-11T04:57:37.825Z,70.06
2019-04-11T04:58:37.926Z,70.13
2019-04-11T04:59:39.565Z,69.68
2019-04-11T05:00:37.747Z,68.51
2019-04-11T05:01:39.175Z,67.79
2019-04-11T05:02:37.595Z,67.34
2019-04-11T05:03:37.952Z,65.55
2019-04-11T05:04:38.418Z,65.10
2019-04-11T05:05:38.258Z,65.17
2019-04-11T05:06:38.766Z,63.48
2019-04-11T05:07:40.211Z,63.04
2019-04-11T05:08:38.903Z,62.91
2019-04-11T05:09:38.382Z,60.81
2019-04-11T05:10:38.170Z,60.60
2019-04-11T05:11:38.225Z,61.22
2019-04-11T05:12:38.781Z,59.85
2019-04-11T05:13:38.812Z,60.14
2019-04-11T05:14:37.448Z,59.62
2019-04-11T05:15:38.431Z,59.36
2019-04-11T05:16:37.609Z,57.99
2019-04-11T05:17:38.667Z,57.06
2019-04-11T05:18:37.375Z,57.26
2019-04-11T05:19:38.347Z,57.06
2019-04-11T05:20:38.542Z,57.06
2019-04-11T05:21:37.314Z,56.52
2019-04-11T05:22:37.309Z,55.69
2019-04-11T05:23:37.448Z,55.59
2019-04-11T05:24:37.287Z,55.87
2019-04-11T05:25:37.284Z,55.10
2019-04-11T05:26:37.280Z,53.94
2019-04-11T05:27:37.866Z,53.20
2019-04-11T05:28:37.431Z,52.91
2019-04-11T05:29:37.614Z,52.58
2019-04-11T05:30:37.214Z,52.69
2019-04-11T05:31:37.202Z,52.17
2019-04-11T05:32:37.541Z,52.14
2019-04-11T05:33:37.181Z,51.50
2019-04-11T05:34:37.219Z,51.48
2019-04-11T05:35:37.164Z,50.84
2019-04-11T05:36:37.149Z,49.58
2019-04-11T05:37:37.788Z,48.74
2019-04-11T05:38:37.976Z,49.48
2019-04-11T05:39:38.063Z,49.38
2019-04-11T05:40:37.719Z,48.97
2019-04-11T05:41:37.649Z,50.02
2019-04-11T05:42:37.706Z,49.38
2019-04-11T05:43:39.823Z,49.89
2019-04-11T05:44:38.298Z,48.74
2019-04-11T05:45:38.090Z,48.94
2019-04-11T05:46:49.311Z,49.07
2019-04-11T05:47:39.238Z,49.79
2019-04-11T05:48:37.012Z,49.26
2019-04-11T05:49:40.371Z,48.72
2019-04-11T05:50:37.048Z,47.56
2019-04-11T05:51:42.621Z,47.01
2019-04-11T05:52:37.986Z,45.97
2019-04-11T05:53:38.361Z,45.45
2019-04-11T05:54:41.198Z,45.89
2019-04-11T05:55:41.563Z,45.33
2019-04-11T05:56:37.924Z,44.29
2019-04-11T05:57:38.415Z,43.76
2019-04-11T05:58:36.900Z,43.30
2019-04-11T05:59:36.999Z,42.18
2019-04-11T06:00:38.057Z,41.77
2019-04-11T06:01:36.880Z,42.50
2019-04-11T06:02:37.436Z,42.59
2019-04-11T06:03:39.955Z,41.59
2019-04-11T06:04:38.390Z,42.50
2019-04-11T06:05:37.890Z,42.59
2019-04-11T06:06:39.800Z,41.65
2019-04-11T06:07:40.041Z,41.73
2019-04-11T06:08:37.872Z,41.42
2019-04-11T06:09:38.917Z,41.30
2019-04-11T06:10:41.307Z,40.59
2019-04-11T06:11:39.037Z,40.90
2019-04-11T06:12:37.848Z,41.51
2019-04-11T06:13:36.739Z,41.04
2019-04-11T06:14:37.541Z,41.79
2019-04-11T06:15:39.682Z,43.55
2019-04-11T06:16:44.912Z,42.91
2019-04-11T06:17:38.501Z,41.96
2019-04-11T06:18:39.632Z,41.53
2019-04-11T06:19:37.659Z,41.12
2019-04-11T06:20:37.585Z,41.77
2019-04-11T06:21:36.665Z,42.77
2019-04-11T06:22:36.638Z,42.67
2019-04-11T06:23:37.173Z,40.83
2019-04-11T06:24:36.629Z,41.56
2019-04-11T06:25:39.072Z,42.18
2019-04-11T06:26:38.634Z,43.20
2019-04-11T06:27:38.366Z,43.43
2019-04-11T06:28:36.578Z,43.32
2019-04-11T06:29:36.973Z,43.84
2019-04-11T06:30:36.744Z,43.63
2019-04-11T06:31:36.554Z,43.85
2019-04-11T06:32:37.361Z,44.57
2019-04-11T06:33:36.591Z,43.76
2019-04-11T06:34:37.551Z,44.17
2019-04-11T06:35:36.511Z,43.00
2019-04-11T06:36:36.999Z,42.36
2019-04-11T06:37:36.479Z,42.14
2019-04-11T06:38:36.533Z,41.39
2019-04-11T06:39:37.595Z,41.61
2019-04-11T06:40:36.691Z,40.39
2019-04-11T06:41:36.870Z,41.71
2019-04-11T06:42:37.269Z,41.80
2019-04-11T06:43:36.419Z,40.06
2019-04-11T06:44:37.549Z,40.28
2019-04-11T06:45:37.443Z,40.51
2019-04-11T06:46:47.574Z,40.69
2019-04-11T06:47:37.375Z,40.69
2019-04-11T06:48:36.356Z,40.19
2019-04-11T06:49:36.376Z,39.84
2019-04-11T06:50:37.520Z,39.84
2019-04-11T06:51:36.355Z,39.23
2019-04-11T06:52:36.978Z,38.60
2019-04-11T06:53:36.495Z,37.85
2019-04-11T06:54:37.148Z,36.47
2019-04-11T06:55:37.048Z,37.34
2019-04-11T06:56:36.920Z,36.41
2019-04-11T06:57:36.355Z,35.85
2019-04-11T06:58:37.293Z,34.92
2019-04-11T06:59:36.535Z,34.69
2019-04-11T07:00:36.958Z,33.35
2019-04-11T07:01:36.270Z,32.32
2019-04-11T07:02:36.902Z,32.84
2019-04-11T07:03:36.336Z,33.57
2019-04-11T07:04:36.159Z,33.44
2019-04-11T07:05:36.162Z,33.55
2019-04-11T07:06:36.150Z,33.15
2019-04-11T07:07:36.567Z,33.15
2019-04-11T07:08:36.396Z,32.64
2019-04-11T07:09:37.098Z,32.79
2019-04-11T07:10:36.321Z,30.44
2019-04-11T07:11:36.305Z,30.63
2019-04-11T07:12:36.108Z,29.93
2019-04-11T07:13:37.191Z,30.15
2019-04-11T07:14:36.066Z,30.36
2019-04-11T07:15:36.051Z,30.98
2019-04-11T07:16:36.294Z,30.68
2019-04-11T07:17:37.038Z,31.09
2019-04-11T07:18:36.052Z,31.18
2019-04-11T07:19:37.227Z,31.49
2019-04-11T07:20:35.998Z,30.51
2019-04-11T07:21:35.968Z,29.37
2019-04-11T07:22:36.840Z,28.64
2019-04-11T07:23:36.457Z,27.84
2019-04-11T07:24:36.799Z,29.17
2019-04-11T07:25:35.948Z,28.77
2019-04-11T07:26:37.168Z,27.72
2019-04-11T07:27:36.641Z,27.53
2019-04-11T07:28:35.926Z,27.51
2019-04-11T07:29:35.910Z,27.33
2019-04-11T07:30:35.882Z,27.55
2019-04-11T07:31:35.886Z,27.12
2019-04-11T07:32:36.503Z,27.91
2019-04-11T07:33:35.914Z,26.01
2019-04-11T07:34:37.731Z,26.21
2019-04-11T07:35:35.835Z,26.32
2019-04-11T07:36:36.116Z,27.24
2019-04-11T07:37:36.670Z,28.30
2019-04-11T07:38:36.486Z,28.47
2019-04-11T07:39:35.811Z,27.72
2019-04-11T07:40:35.802Z,25.67
2019-04-11T07:41:35.977Z,25.37
2019-04-11T07:42:37.333Z,25.68
2019-04-11T07:43:35.753Z,25.59
2019-04-11T07:44:35.774Z,26.41
2019-04-11T07:45:37.680Z,25.30
2019-04-11T07:46:35.751Z,25.32
2019-04-11T07:47:35.698Z,26.25
2019-04-11T07:48:35.939Z,26.18
2019-04-11T07:49:35.685Z,27.40
2019-04-11T07:50:35.677Z,27.39
2019-04-11T07:51:36.452Z,28.03
2019-04-11T07:52:35.939Z,28.83
2019-04-11T07:53:35.631Z,27.33
2019-04-11T07:54:36.835Z,27.73
2019-04-11T07:55:36.540Z,29.54
2019-04-11T07:56:35.610Z,29.41
2019-04-11T07:57:36.198Z,29.19
2019-04-11T07:58:35.587Z,28.63
2019-04-11T07:59:35.581Z,29.00
2019-04-11T08:00:43.451Z,30.80
2019-04-11T08:01:36.553Z,29.93
2019-04-11T08:02:35.637Z,29.63
2019-04-11T08:03:35.676Z,28.44
2019-04-11T08:04:36.491Z,26.47
2019-04-11T08:05:36.653Z,25.40
2019-04-11T08:06:35.507Z,25.38
2019-04-11T08:07:35.470Z,23.96
2019-04-11T08:08:36.693Z,24.04
2019-04-11T08:09:35.799Z,23.64
2019-04-11T08:10:35.452Z,24.24
2019-04-11T08:11:35.896Z,24.12
2019-04-11T08:12:35.429Z,22.41
2019-04-11T08:13:36.718Z,22.10
2019-04-11T08:14:35.401Z,22.28
2019-04-11T08:15:35.615Z,21.65
2019-04-11T08:16:35.414Z,20.84
2019-04-11T08:17:40.062Z,20.53
2019-04-11T08:18:36.898Z,19.42
2019-04-11T08:19:35.339Z,20.86
2019-04-11T08:20:35.341Z,23.46
2019-04-11T08:21:36.070Z,25.23
2019-04-11T08:22:35.348Z,27.73
2019-04-11T08:23:36.008Z,29.82
2019-04-11T08:24:36.475Z,30.28
2019-04-11T08:25:35.538Z,32.46
2019-04-11T08:26:35.906Z,33.59
2019-04-11T08:27:35.763Z,34.66
2019-04-11T08:28:35.584Z,34.80
2019-04-11T08:29:36.005Z,35.15
2019-04-11T08:30:35.238Z,35.69
2019-04-11T08:31:36.169Z,37.26
2019-04-11T08:32:36.009Z,37.99
2019-04-11T08:33:35.214Z,37.28
2019-04-11T08:34:35.386Z,38.03
2019-04-11T08:35:35.184Z,38.79
2019-04-11T08:36:35.161Z,40.14
2019-04-11T08:37:35.761Z,39.73
2019-04-11T08:38:36.251Z,39.97
2019-04-11T08:39:35.317Z,40.17
2019-04-11T08:40:35.720Z,40.59
2019-04-11T08:41:35.860Z,41.10
2019-04-11T08:42:37.254Z,41.12
2019-04-11T08:43:35.298Z,41.84
2019-04-11T08:44:36.076Z,42.14
2019-04-11T08:45:35.053Z,41.74
2019-04-11T08:46:35.189Z,41.14
2019-04-11T08:47:44.754Z,40.33
2019-04-11T08:48:37.131Z,35.00
2019-04-11T08:49:35.166Z,30.82
2019-04-11T08:50:34.999Z,28.39
2019-04-11T08:51:35.724Z,26.52
2019-04-11T08:52:36.049Z,25.16
2019-04-11T08:53:35.127Z,23.01
2019-04-11T08:54:34.957Z,22.76
2019-04-11T08:55:47.639Z,21.50
2019-04-11T08:56:36.831Z,22.39
2019-04-11T08:57:35.998Z,25.10
2019-04-11T08:58:34.925Z,25.86
2019-04-11T08:59:35.784Z,28.17
2019-04-11T09:00:34.893Z,30.06
2019-04-11T09:01:35.947Z,31.63
2019-04-11T09:02:35.345Z,33.21
2019-04-11T09:03:34.865Z,33.33
2019-04-11T09:04:34.845Z,33.82
2019-04-11T09:05:35.453Z,32.67
2019-04-11T09:06:34.832Z,32.14
2019-04-11T09:07:35.899Z,31.95
2019-04-11T09:08:34.833Z,32.20
2019-04-11T09:09:36.269Z,28.38
2019-04-11T09:10:35.898Z,29.46
2019-04-11T09:11:37.443Z,31.24
2019-04-11T09:12:34.750Z,30.45
2019-04-11T09:13:35.587Z,31.88
2019-04-11T09:14:35.892Z,31.38
2019-04-11T09:15:35.133Z,31.09
2019-04-11T09:16:34.732Z,30.68
2019-04-11T09:17:34.719Z,31.13
2019-04-11T09:18:34.689Z,31.05
2019-04-11T09:19:34.870Z,31.15
2019-04-11T09:20:35.848Z,31.56
2019-04-11T09:21:34.660Z,30.96
2019-04-11T09:22:35.329Z,31.90
2019-04-11T09:23:35.705Z,32.61
2019-04-11T09:24:34.704Z,33.65
2019-04-11T09:25:34.938Z,32.79
2019-04-11T09:26:34.609Z,29.46
2019-04-11T09:27:34.595Z,25.87
2019-04-11T09:28:35.606Z,23.26
2019-04-11T09:29:34.599Z,21.48
2019-04-11T09:30:34.675Z,19.71
2019-04-11T09:31:35.793Z,20.13
2019-04-11T09:32:34.531Z,18.99
2019-04-11T09:33:35.118Z,20.18
2019-04-11T09:34:35.586Z,20.04
2019-04-11T09:35:35.321Z,21.32
2019-04-11T09:36:34.495Z,23.44
2019-04-11T09:37:35.850Z,25.74
2019-04-11T09:38:34.796Z,28.25
2019-04-11T09:39:35.064Z,29.61
2019-04-11T09:40:34.472Z,30.16
2019-04-11T09:41:34.427Z,32.04
2019-04-11T09:42:34.640Z,33.22
2019-04-11T09:43:34.417Z,33.62
2019-04-11T09:44:34.988Z,34.25
2019-04-11T09:45:35.387Z,33.74
2019-04-11T09:46:34.517Z,34.27
2019-04-11T09:47:34.373Z,33.89
2019-04-11T09:48:34.653Z,34.92
2019-04-11T09:49:36.073Z,34.41
2019-04-11T09:50:34.376Z,34.51
2019-04-11T09:51:34.341Z,35.13
2019-04-11T09:52:34.330Z,34.09
2019-04-11T09:53:34.544Z,34.71
2019-04-11T09:54:35.116Z,33.87
2019-04-11T09:55:34.277Z,33.06
2019-04-11T09:56:36.192Z,33.98
2019-04-11T09:57:34.725Z,33.45
2019-04-11T09:58:34.261Z,32.93
2019-04-11T09:59:34.257Z,33.12
2019-04-11T10:00:34.755Z,32.41
2019-04-11T10:01:35.109Z,33.03
2019-04-11T10:02:35.260Z,32.39
2019-04-11T10:03:34.574Z,32.81
2019-04-11T10:04:34.185Z,32.17
2019-04-11T10:05:34.244Z,32.17
2019-04-11T10:06:34.432Z,32.38
2019-04-11T10:07:34.188Z,32.17
2019-04-11T10:08:35.137Z,32.24
2019-04-11T10:09:34.135Z,31.94
2019-04-11T10:10:35.268Z,32.13
2019-04-11T10:11:34.473Z,31.21
2019-04-11T10:12:34.111Z,30.99
2019-04-11T10:13:35.504Z,29.61
2019-04-11T10:14:34.066Z,28.78
2019-04-11T10:15:34.053Z,29.52
2019-04-11T10:16:34.070Z,29.93
2019-04-11T10:17:34.054Z,31.18
2019-04-11T10:18:38.496Z,30.79
2019-04-11T10:19:36.005Z,31.84
2019-04-11T10:20:34.991Z,32.68
2019-04-11T10:21:34.121Z,33.64
2019-04-11T10:22:34.154Z,33.54
2019-04-11T10:23:34.549Z,33.86
2019-04-11T10:24:34.674Z,33.96
2019-04-11T10:25:35.132Z,33.67
2019-04-11T10:26:34.199Z,33.87
2019-04-11T10:27:33.949Z,33.98
2019-04-11T10:28:33.908Z,33.77
2019-04-11T10:29:34.633Z,33.98
2019-04-11T10:30:33.915Z,33.98
2019-04-11T10:31:34.672Z,32.95
2019-04-11T10:32:35.022Z,33.25
2019-04-11T10:33:35.072Z,32.93
2019-04-11T10:34:33.839Z,33.25
2019-04-11T10:35:34.562Z,33.84
2019-04-11T10:36:34.836Z,33.25
2019-04-11T10:37:33.885Z,33.65
2019-04-11T10:38:33.848Z,33.76
2019-04-11T10:39:33.795Z,33.35
2019-04-11T10:40:34.399Z,33.65
2019-04-11T10:41:33.779Z,33.45
2019-04-11T10:42:34.939Z,33.87
2019-04-11T10:43:34.202Z,34.20
2019-04-11T10:44:34.010Z,35.02
2019-04-11T10:45:34.413Z,35.23
2019-04-11T10:46:33.714Z,34.81
2019-04-11T10:47:33.701Z,34.80
2019-04-11T10:48:39.294Z,34.90
2019-04-11T10:49:34.691Z,34.71
2019-04-11T10:50:34.050Z,35.23
2019-04-11T10:51:33.860Z,35.55
2019-04-11T10:52:34.250Z,36.15
2019-04-11T10:53:33.657Z,35.64
2019-04-11T10:54:33.627Z,35.64
2019-04-11T10:55:33.680Z,35.53
2019-04-11T10:56:34.672Z,35.52
2019-04-11T10:57:33.589Z,34.71
2019-04-11T10:58:33.583Z,35.02
2019-04-11T10:59:34.490Z,35.42
2019-04-11T11:00:33.593Z,34.78
2019-04-11T11:01:33.851Z,35.09
2019-04-11T11:02:33.678Z,35.18
2019-04-11T11:03:34.071Z,34.15
2019-04-11T11:04:34.626Z,34.55
2019-04-11T11:05:34.557Z,32.90
2019-04-11T11:06:33.714Z,30.22
2019-04-11T11:07:33.484Z,30.96
2019-04-11T11:08:33.483Z,30.99
2019-04-11T11:09:35.349Z,32.03
2019-04-11T11:10:33.461Z,32.24
2019-04-11T11:11:34.456Z,32.67
2019-04-11T11:12:33.434Z,32.06
2019-04-11T11:13:34.035Z,31.65
2019-04-11T11:14:34.436Z,31.44
2019-04-11T11:15:33.762Z,31.97
2019-04-11T11:16:34.161Z,31.85
2019-04-11T11:17:54.990Z,31.32
2019-04-11T11:18:53.969Z,31.10
2019-04-11T11:19:50.935Z,30.59
2019-04-11T11:20:39.394Z,30.90
2019-04-11T11:21:35.648Z,31.31
2019-04-11T11:22:34.464Z,30.08
2019-04-11T11:23:33.318Z,30.51
2019-04-11T11:24:33.732Z,30.20
2019-04-11T11:25:33.802Z,30.62
2019-04-11T11:26:33.888Z,30.42
2019-04-11T11:27:33.274Z,30.40
2019-04-11T11:28:34.325Z,30.71
2019-04-11T11:29:33.245Z,30.30
2019-04-11T11:30:33.257Z,31.02
2019-04-11T11:31:33.217Z,31.13
2019-04-11T11:32:33.646Z,31.95
2019-04-11T11:33:34.104Z,31.54
2019-04-11T11:34:33.200Z,32.39
2019-04-11T11:35:37.041Z,33.11
2019-04-11T11:36:37.511Z,33.74
2019-04-11T11:37:33.389Z,33.76
2019-04-11T11:38:33.688Z,33.86
2019-04-11T11:39:33.460Z,34.06
2019-04-11T11:40:38.158Z,34.48
2019-04-11T11:41:34.385Z,34.90
2019-04-11T11:42:33.108Z,35.21
2019-04-11T11:43:33.100Z,35.64
2019-04-11T11:44:33.092Z,36.47
2019-04-11T11:45:33.269Z,36.99
2019-04-11T11:46:34.149Z,37.09
2019-04-11T11:47:35.713Z,36.60
2019-04-11T11:48:34.038Z,37.32
2019-04-11T11:49:45.989Z,37.83
2019-04-11T11:50:34.917Z,38.36
2019-04-11T11:51:33.288Z,39.92
2019-04-11T11:52:34.541Z,39.31
2019-04-11T11:53:33.092Z,39.73
2019-04-11T11:54:32.974Z,39.41
2019-04-11T11:55:33.515Z,39.84
2019-04-11T11:56:34.035Z,40.13
2019-04-11T11:57:33.050Z,40.05
2019-04-11T11:58:33.411Z,40.44
2019-04-11T11:59:32.940Z,40.66
2019-04-11T12:00:33.338Z,41.08
2019-04-11T12:01:32.891Z,41.16
2019-04-11T12:02:32.874Z,40.64
2019-04-11T12:03:33.081Z,41.38
2019-04-11T12:04:35.311Z,40.56
2019-04-11T12:05:32.862Z,41.80
2019-04-11T12:06:33.371Z,41.59
2019-04-11T12:07:36.225Z,41.89
2019-04-11T12:08:32.818Z,42.10
2019-04-11T12:09:32.812Z,41.49
2019-04-11T12:10:34.056Z,41.49
2019-04-11T12:11:32.782Z,41.71
2019-04-11T12:12:32.764Z,42.02
2019-04-11T12:13:32.762Z,42.02
2019-04-11T12:14:33.060Z,41.89
2019-04-11T12:15:32.955Z,41.69
2019-04-11T12:16:33.520Z,41.80
2019-04-11T12:17:36.012Z,42.08
2019-04-11T12:18:32.946Z,41.57
2019-04-11T12:19:45.754Z,41.77
2019-04-11T12:20:34.779Z,42.08
2019-04-11T12:21:32.668Z,40.93
2019-04-11T12:22:32.767Z,41.03
2019-04-11T12:23:44.729Z,41.02
2019-04-11T12:24:34.481Z,40.19
2019-04-11T12:25:33.430Z,40.19
2019-04-11T12:26:33.780Z,40.17
2019-04-11T12:27:32.977Z,40.28
2019-04-11T12:28:33.456Z,39.36
2019-04-11T12:29:32.576Z,40.17
2019-04-11T12:30:33.931Z,39.54
2019-04-11T12:31:35.052Z,39.15
2019-04-11T12:32:32.705Z,38.92
2019-04-11T12:33:33.111Z,39.03
2019-04-11T12:34:32.555Z,38.19
2019-04-11T12:35:32.652Z,38.58
2019-04-11T12:36:32.583Z,38.05
2019-04-11T12:37:33.601Z,37.23
2019-04-11T12:38:32.484Z,37.30
2019-04-11T12:39:32.477Z,36.77
2019-04-11T12:40:32.459Z,36.36
2019-04-11T12:41:32.573Z,36.14
2019-04-11T12:42:32.430Z,35.42
2019-04-11T12:43:32.416Z,35.74
2019-04-11T12:44:32.418Z,36.19
2019-04-11T12:45:32.427Z,36.39
2019-04-11T12:46:32.408Z,37.01
2019-04-11T12:47:32.399Z,36.38
2019-04-11T12:48:32.375Z,35.86
2019-04-11T12:49:32.358Z,35.44
2019-04-11T12:50:32.367Z,35.23
2019-04-11T12:51:34.310Z,35.22
2019-04-11T12:52:32.344Z,34.99
2019-04-11T12:53:32.303Z,34.99
2019-04-11T12:54:32.312Z,34.82
2019-04-11T12:55:32.280Z,35.13
2019-04-11T12:56:32.288Z,36.38